• Join FlightAware (Why Join?)
  • Login
  • US Flag 
12:01AM EDT


 

Airport Tracker/Info


-or-


 

Live Flight TrackerFlight Track Log ✈ AWE2690 ✈ 05-Mar-2014 ✈ KCLT - KSYR

Flight Track Log - Related Links

Times and Time Zones

All times are in EST time to prevent confusion due to time zone crossing. See the AWE2690 flight status page for this flight to view local times or setup timezone preferences in your user account.

Time Position Orientation Groundspeed Altitude Reporting Facility
EST Latitude Longitude Course Direction KTS MPH feet Rate Location/Type
01:58PM 35.2311 -80.9569 24° Northeast 171 197 1,600  Level Atlanta Center
01:59PM 35.2606 -80.9739 335° Northwest 187 215 2,800 1,680 Climbing Atlanta Center
02:00PM 35.2947 -81.0056 323° Northwest 259 298 3,800 1,980 Climbing Atlanta Center
02:00PM 35.3178 -81.0072 357° North 268 308 4,800 2,880 Climbing Atlanta Center
02:01PM 35.5451 -80.7683 24° Northeast  Level Estimated
02:01PM 35.3656 -80.9928 14° North 268 308 6,700  Level Atlanta Center
02:01PM 35.3967 -80.9892 North 276 318 7,900 2,700 Climbing Atlanta Center
02:02PM 35.6555 -80.7077 24° Northeast  Level Estimated
02:02PM 35.4422 -80.9722 17° North 280 322 9,400  Level Atlanta Center
02:03PM 35.7659 -80.6469 24° Northeast  Level Estimated
02:03PM 35.5228 -80.9486 13° North 280 322 10,900  Level Atlanta Center
02:04PM 35.8763 -80.5860 24° Northeast  Level Estimated
02:04PM 35.6181 -80.9169 15° North 315 362 13,100  Level Atlanta Center
02:05PM 35.7072 -80.8906 14° North 351 404 15,000 2,160 Climbing Atlanta Center
02:06PM 35.8089 -80.8764 North 361 415 17,500 2,100 Climbing Atlanta Center
02:07PM 35.9150 -80.8619 North 366 421 19,200 1,680 Climbing Atlanta Center
02:08PM 36.0211 -80.8503 North 372 428 20,900 1,500 Climbing Atlanta Center
02:09PM 36.1292 -80.8356 North 378 435 22,300 1,500 Climbing Atlanta Center
02:10PM 36.2433 -80.8208 North 395 455 23,900 1,200 Climbing Atlanta Center
02:11PM 36.3578 -80.8058 North 402 463 24,800 540 Climbing Atlanta Center
02:12PM 36.4719 -80.7908 North 412 474 25,000 60 Climbing Atlanta Center
02:13PM 36.5864 -80.7758 North 412 474 25,000  Level Atlanta Center
02:14PM 36.7008 -80.7636 North 407 468 25,000 240 Level Atlanta Center
02:15PM 36.8294 -80.7478 North 402 463 25,500 480 Climbing Atlanta Center
02:16PM 36.9458 -80.7325 North 412 474 26,000 900 Climbing Atlanta Center
02:18PM 37.2292 -80.6681 10° North 448 516 28,600 840 Climbing Washington Center
02:19PM 37.3478 -80.6289 15° North 448 516 29,000 240 Climbing Washington Center
02:20PM 37.4706 -80.5872 15° North 448 516 29,200 420 Climbing Washington Center
02:21PM 37.6100 -80.5442 14° North 453 521 29,900 660 Climbing Washington Center
02:22PM 37.7350 -80.4997 16° North 459 528 30,600 720 Climbing Washington Center
02:23PM 37.8658 -80.4583 14° North 464 534 31,400 1,200 Climbing Washington Center
02:24PM 37.9950 -80.4139 15° North 469 540 33,000 1,260 Climbing Washington Center
02:25PM 38.1197 -80.3692 16° North 469 540 33,900 660 Climbing Washington Center
02:26PM 38.2361 -80.3292 15° North 464 534 34,400 540 Climbing Washington Center
02:27PM 38.3631 -80.2842 16° North 464 534 35,000 240 Climbing Washington Center
02:28PM 38.4961 -80.2394 15° North 471 542 35,000  Level Washington Center
02:29PM 38.6294 -80.1922 15° North 482 555 35,000  Level Washington Center
02:31PM 38.8347 -80.0325 31° Northeast 520 598 35,000  Level Cleveland Center
02:32PM 38.9564 -79.9381 31° Northeast 519 597 35,000  Level Cleveland Center
02:33PM 39.1019 -79.8211 32° Northeast 518 596 35,000  Level Cleveland Center
02:34PM 39.2233 -79.7250 32° Northeast 517 595 35,000  Level Cleveland Center
02:35PM 39.3442 -79.6303 31° Northeast 513 590 35,000  Level Cleveland Center
02:36PM 39.4722 -79.5564 24° Northeast 508 585 35,000  Level Cleveland Center
02:37PM 39.6019 -79.4828 24° Northeast 508 585 35,000  Level Cleveland Center
02:38PM 39.7314 -79.4083 24° Northeast 509 586 35,000  Level Cleveland Center
02:39PM 39.8881 -79.3164 24° Northeast 515 593 35,000  Level Cleveland Center
02:40PM 40.0164 -79.2419 24° Northeast 514 592 35,000  Level Cleveland Center
02:41PM 40.1622 -79.1592 23° Northeast 514 592 35,000  Level Cleveland Center
02:42PM 40.2933 -79.0828 24° Northeast 518 596 35,000  Level Cleveland Center
02:43PM 40.4253 -79.0042 24° Northeast 522 601 35,000  Level Cleveland Center
02:44PM 40.5594 -78.9256 24° Northeast 524 603 35,000  Level Cleveland Center
02:45PM 40.6922 -78.8461 24° Northeast 525 604 35,000  Level Cleveland Center
02:46PM 40.8269 -78.7661 24° Northeast 529 609 35,000  Level Cleveland Center
02:47PM 40.9725 -78.6797 24° Northeast 530 610 35,000  Level Cleveland Center
02:48PM 41.1069 -78.5992 24° Northeast 532 612 35,000 -540 Level Cleveland Center
02:49PM 41.2403 -78.5169 25° Northeast 533 613 34,000 -540 Descending Cleveland Center
02:50PM 41.3989 -78.4225 24° Northeast 522 601 34,000  Level Cleveland Center
02:51PM 41.5322 -78.3433 24° Northeast 520 598 34,000 -480 Level Cleveland Center
02:52PM 41.6647 -78.2611 25° Northeast 527 606 33,100 -1,260 Descending Cleveland Center
02:53PM 41.7869 -78.1864 25° Northeast 494 568 31,500 -1,800 Descending Cleveland Center
02:55PM 41.9136 -78.0583 37° Northeast 515 593 29,500 -1,800 Descending Cleveland Center
02:56PM 42.0208 -77.9314 41° Northeast 518 596 27,800 -1,740 Descending Cleveland Center
02:57PM 42.1258 -77.8103 41° Northeast 506 582 26,000 -1,800 Descending Cleveland Center
02:58PM 42.2303 -77.6872 41° Northeast 501 577 24,200 -1,980 Descending Cleveland Center
02:59PM 42.3525 -77.5442 41° Northeast 495 570 22,000 -1,980 Descending Cleveland Center
03:00PM 42.4522 -77.4267 41° Northeast 485 558 20,200 -1,560 Descending Cleveland Center
03:01PM 42.5481 -77.3133 41° Northeast 471 542 18,800 -1,380 Descending Cleveland Center
03:02PM 42.6375 -77.2058 41° Northeast 441 507 17,400 -1,740 Descending Cleveland Center
03:03PM 42.7425 -77.0828 41° Northeast 421 484 15,300 -1,980 Descending Cleveland Center
03:04PM 42.8267 -76.9728 44° Northeast 422 486 13,400 -1,800 Descending Cleveland Center
03:05PM 42.8767 -76.8244 65° Northeast 429 494 11,600 -1,440 Descending Cleveland Center
03:06PM 42.9217 -76.6889 66° East 383 441 10,500 -1,020 Descending Cleveland Center
03:07PM 42.9581 -76.5769 66° East 332 382 9,600 -1,380 Descending Cleveland Center
03:08PM 42.9922 -76.4794 64° Northeast 293 337 7,700 -1,860 Descending Cleveland Center
03:09PM 42.9947 -76.3764 88° East 274 315 5,800 -1,620 Descending Cleveland Center
03:10PM 42.9964 -76.2597 89° East 262 302 4,400 -1,140 Descending Cleveland Center
03:11PM 42.9964 -76.1619 90° East 261 300 3,500 -480 Descending Cleveland Center
03:12PM 42.9958 -76.0603 90° East 234 269 3,500  Level Boston Center
03:12PM 42.9942 -76.0344 95° East 249 287 3,500  Level Boston Center
03:13PM 42.9947 -75.9783 89° East 206 237 3,500 -240 Level Boston Center
03:13PM 42.9939 -75.9542 93° East 231 266 3,300 -540 Descending Boston Center
03:14PM 42.9992 -75.9011 82° East 208 239 3,000 -300 Descending Boston Center
03:14PM 43.0000 -75.8783 87° East 216 249 3,000  Level Boston Center
03:15PM 43.0189 -75.8344 60° Northeast 199 229 3,000  Level Boston Center
03:16PM 43.0336 -75.8297 13° North 203 234 3,000  Level Boston Center
03:16PM 43.0733 -75.8281 North 194 223 3,000  Level Boston Center
03:17PM 43.0881 -75.8286 358° North 198 228 3,000 -540 Level Boston Center
03:17PM 43.1158 -75.8556 325° Northwest 193 222 2,500 -720 Descending Boston Center
03:18PM 43.1169 -75.8761 274° West 199 229 2,300 -540 Descending Boston Center
03:18PM 43.1142 -75.9281 266° West 193 222 2,000 -360 Descending Boston Center
03:18PM 43.1136 -75.9456 268° West 190 219 2,000  Level Boston Center
03:19PM 43.1139 -75.9481 279° West 194 223 2,000  Level Boston Center
03:19PM 43.1133 -75.9600 266° West 184 212 2,000 -240 Level Boston Center
03:19PM 43.1119 -76.0061 268° West 124 143 1,800 -120 Descending Boston Center
03:20PM 43.1131 -76.0000 76° East 159 183 1,900 -720 Climbing Boston Center
03:21PM 43.1100 -76.0553 266° West 127 146 1,100 -900 Descending Boston Center
03:21PM 43.1106 -76.0594 280° West 138 159 1,000 -660 Descending Boston Center
03:22PM 43.1089 -76.1083 267° West 132 152 400 -600 Descending Boston Center